createdAt,value
2018-10-01T00:02:41.913Z,10.90
2018-10-01T00:07:45.101Z,10.80
2018-10-01T00:12:49.351Z,10.80
2018-10-01T00:17:52.523Z,10.80
2018-10-01T00:22:55.700Z,10.80
2018-10-01T00:27:58.878Z,10.80
2018-10-01T00:33:02.153Z,10.80
2018-10-01T00:38:05.300Z,10.90
2018-10-01T00:43:08.476Z,10.90
2018-10-01T00:48:11.623Z,10.90
2018-10-01T00:53:14.782Z,10.90
2018-10-01T00:58:17.955Z,10.90
2018-10-01T01:03:21.111Z,10.90
2018-10-01T01:08:24.286Z,10.90
2018-10-01T01:13:27.469Z,10.80
2018-10-01T01:18:30.734Z,10.80
2018-10-01T01:23:33.908Z,10.70
2018-10-01T01:28:37.084Z,10.70
2018-10-01T01:33:40.333Z,10.70
2018-10-01T01:38:43.618Z,10.70
2018-10-01T01:43:46.791Z,10.80
2018-10-01T01:48:51.050Z,10.80
2018-10-01T01:53:54.259Z,10.80
2018-10-01T01:58:57.431Z,10.70
2018-10-01T02:04:00.580Z,10.70
2018-10-01T02:09:04.873Z,10.70
2018-10-01T02:14:08.031Z,10.70
2018-10-01T02:19:11.202Z,10.60
2018-10-01T02:24:14.362Z,10.60
2018-10-01T02:29:17.509Z,10.60
2018-10-01T02:34:20.675Z,10.60
2018-10-01T02:39:23.884Z,10.50
2018-10-01T02:44:27.051Z,10.40
2018-10-01T02:49:30.221Z,10.30
2018-10-01T02:54:34.415Z,10.30
2018-10-01T02:59:37.557Z,10.30
2018-10-01T03:04:40.711Z,10.30
2018-10-01T03:09:43.895Z,10.40
2018-10-01T03:14:47.062Z,10.30
2018-10-01T03:19:50.256Z,10.30
2018-10-01T03:24:53.422Z,10.20
2018-10-01T03:29:56.591Z,10.10
2018-10-01T03:35:05.218Z,9.90
2018-10-01T03:40:08.686Z,9.80
2018-10-01T03:45:11.746Z,9.70
2018-10-01T03:50:14.907Z,9.60
2018-10-01T03:55:18.052Z,9.70
2018-10-01T04:00:21.225Z,9.70
2018-10-01T04:05:24.631Z,9.60
2018-10-01T04:10:27.796Z,9.60
2018-10-01T04:15:30.967Z,9.60
2018-10-01T04:20:34.270Z,9.60
2018-10-01T04:25:37.411Z,9.70
2018-10-01T04:30:40.579Z,9.70
2018-10-01T04:35:43.742Z,9.70
2018-10-01T04:40:46.927Z,9.70
2018-10-01T04:45:50.079Z,9.80
2018-10-01T04:50:53.256Z,9.80
2018-10-01T04:55:56.432Z,9.90
2018-10-01T05:00:59.610Z,9.80
2018-10-01T05:06:02.778Z,9.70
2018-10-01T05:11:05.994Z,9.70
2018-10-01T05:16:09.149Z,9.70
2018-10-01T05:21:12.298Z,9.70
2018-10-01T05:26:15.498Z,9.70
2018-10-01T05:31:18.680Z,9.70
2018-10-01T05:36:21.855Z,9.80
2018-10-01T05:41:25.009Z,9.80
2018-10-01T05:46:28.263Z,9.80
2018-10-01T05:51:31.481Z,9.70
2018-10-01T05:56:34.676Z,9.60
2018-10-01T06:01:37.896Z,9.60
2018-10-01T06:06:41.087Z,9.70
2018-10-01T06:11:44.365Z,9.60
2018-10-01T06:16:48.679Z,9.60
2018-10-01T06:21:51.884Z,9.60
2018-10-01T06:27:00.286Z,9.60
2018-10-01T06:32:03.457Z,9.60
2018-10-01T06:37:09.970Z,9.70
2018-10-01T06:42:13.201Z,9.70
2018-10-01T06:47:16.386Z,9.60
2018-10-01T06:52:19.546Z,9.60
2018-10-01T06:57:24.802Z,9.60
2018-10-01T07:02:28.100Z,9.70
2018-10-01T07:07:31.270Z,9.70
2018-10-01T07:12:34.406Z,9.80
2018-10-01T07:17:37.640Z,10.00
2018-10-01T07:22:41.417Z,10.10
2018-10-01T07:27:44.537Z,10.00
2018-10-01T07:32:47.741Z,10.00
2018-10-01T07:37:50.942Z,10.10
2018-10-01T07:42:54.134Z,10.30
2018-10-01T07:47:57.306Z,10.60
2018-10-01T07:53:00.558Z,10.80
2018-10-01T07:58:03.819Z,10.70
2018-10-01T08:03:07.038Z,10.80
2018-10-01T08:08:10.234Z,11.10
2018-10-01T08:13:13.395Z,11.20
2018-10-01T08:18:17.134Z,11.30
2018-10-01T08:23:20.344Z,11.30
2018-10-01T08:28:23.503Z,11.30
2018-10-01T08:33:26.678Z,11.30
2018-10-01T08:38:29.930Z,11.40
2018-10-01T08:43:35.100Z,11.70
2018-10-01T08:49:49.485Z,11.80
2018-10-01T08:54:52.637Z,11.90
2018-10-01T08:59:55.826Z,11.90
2018-10-01T09:05:00.102Z,12.00
2018-10-01T09:10:10.515Z,12.00
2018-10-01T09:15:17.033Z,12.20
2018-10-01T09:20:20.396Z,12.20
2018-10-01T09:25:23.601Z,12.30
2018-10-01T09:30:26.781Z,12.90
2018-10-01T09:35:30.009Z,12.60
2018-10-01T09:40:33.224Z,12.50
2018-10-01T09:45:36.416Z,12.80
2018-10-01T09:50:39.659Z,12.50
2018-10-01T09:55:42.857Z,12.50
2018-10-01T10:00:52.121Z,12.30
2018-10-01T10:05:55.501Z,12.40
2018-10-01T10:10:58.735Z,12.60
2018-10-01T10:16:03.008Z,13.10
2018-10-01T10:21:08.206Z,13.20
2018-10-01T10:26:11.632Z,12.70
2018-10-01T10:31:15.862Z,11.40
2018-10-01T10:36:23.182Z,11.00
2018-10-01T10:41:45.155Z,11.20
2018-10-01T10:46:49.352Z,11.50
2018-10-01T10:51:53.619Z,11.90
2018-10-01T10:56:56.976Z,12.10
2018-10-01T11:02:00.116Z,12.30
2018-10-01T11:07:06.793Z,12.10
2018-10-01T11:12:10.014Z,12.00
2018-10-01T11:17:18.866Z,12.30
2018-10-01T11:22:22.215Z,13.00
2018-10-01T11:27:26.794Z,13.20
2018-10-01T11:32:30.062Z,12.20
2018-10-01T11:37:34.488Z,10.60
2018-10-01T11:42:37.685Z,10.40
2018-10-01T11:47:40.923Z,10.50
2018-10-01T11:52:44.118Z,10.60
2018-10-01T11:57:48.429Z,10.80
2018-10-01T12:02:51.515Z,11.00
2018-10-01T12:07:54.828Z,10.80
2018-10-01T12:12:58.026Z,10.00
2018-10-01T12:18:01.312Z,9.50
2018-10-01T12:23:04.555Z,9.40
2018-10-01T12:28:14.854Z,9.50
2018-10-01T12:33:18.155Z,9.80
2018-10-01T12:38:21.287Z,10.10
2018-10-01T12:43:24.653Z,10.30
2018-10-01T12:48:27.917Z,10.40
2018-10-01T12:53:31.111Z,10.60
2018-10-01T12:58:34.331Z,10.80
2018-10-01T13:03:37.737Z,11.10
2018-10-01T13:08:42.978Z,11.00
2018-10-01T13:13:47.212Z,11.40
2018-10-01T13:18:50.546Z,11.50
2018-10-01T13:23:57.323Z,11.40
2018-10-01T13:29:00.513Z,11.20
2018-10-01T13:34:03.747Z,10.50
2018-10-01T13:39:08.641Z,10.40
2018-10-01T13:44:11.807Z,10.50
2018-10-01T13:49:15.119Z,10.40
2018-10-01T13:54:22.860Z,10.60
2018-10-01T13:59:25.995Z,10.60
2018-10-01T14:04:29.238Z,10.50
2018-10-01T14:09:32.464Z,10.30
2018-10-01T14:14:52.298Z,10.40
2018-10-01T14:19:55.847Z,10.70
2018-10-01T14:25:07.628Z,11.00
2018-10-01T14:30:15.327Z,11.20
2018-10-01T14:35:18.683Z,11.20
2018-10-01T14:40:42.606Z,11.30
2018-10-01T14:45:45.865Z,11.10
2018-10-01T14:50:51.104Z,10.80
2018-10-01T14:55:54.378Z,10.60
2018-10-01T15:00:59.893Z,10.70
2018-10-01T15:06:03.108Z,10.90
2018-10-01T15:11:08.387Z,10.80
2018-10-01T15:16:11.820Z,10.90
2018-10-01T15:21:25.063Z,10.50
2018-10-01T15:26:28.374Z,10.30
2018-10-01T15:31:31.652Z,10.20
2018-10-01T15:36:35.894Z,10.50
2018-10-01T15:41:39.247Z,10.50
2018-10-01T15:46:42.490Z,10.10
2018-10-01T15:51:55.826Z,9.90
2018-10-01T15:56:59.025Z,9.90
2018-10-01T16:02:02.500Z,9.80
2018-10-01T16:07:12.782Z,9.80
2018-10-01T16:12:16.019Z,9.80
2018-10-01T16:17:21.307Z,9.80
2018-10-01T16:22:25.554Z,9.70
2018-10-01T16:27:28.774Z,9.70
2018-10-01T16:32:31.987Z,9.70
2018-10-01T16:37:35.191Z,9.70
2018-10-01T16:42:38.399Z,9.70
2018-10-01T16:47:41.667Z,9.80
2018-10-01T16:52:44.885Z,9.80
2018-10-01T16:57:49.141Z,10.00
2018-10-01T17:02:52.387Z,9.70
2018-10-01T17:07:56.950Z,9.20
2018-10-01T17:13:00.247Z,8.90
2018-10-01T17:18:03.510Z,8.90
2018-10-01T17:23:12.269Z,8.80
2018-10-01T17:28:15.518Z,8.80
2018-10-01T17:33:18.695Z,8.70
2018-10-01T17:38:22.079Z,8.60
2018-10-01T17:43:25.307Z,8.70
2018-10-01T17:48:28.546Z,8.70
2018-10-01T17:53:31.795Z,8.90
2018-10-01T17:58:35.111Z,8.90
2018-10-01T18:03:38.348Z,8.80
2018-10-01T18:08:41.582Z,8.80
2018-10-01T18:13:45.885Z,8.80
2018-10-01T18:18:49.415Z,8.70
2018-10-01T18:23:52.758Z,8.60
2018-10-01T18:28:56.322Z,8.50
2018-10-01T18:33:59.655Z,8.40
2018-10-01T18:39:14.298Z,8.50
2018-10-01T18:44:17.534Z,8.40
2018-10-01T18:49:21.191Z,8.40
2018-10-01T18:54:24.511Z,8.30
2018-10-01T18:59:27.815Z,8.30
2018-10-01T19:04:31.844Z,8.30
2018-10-01T19:09:40.638Z,8.30
2018-10-01T19:14:43.989Z,8.40
2018-10-01T19:19:51.006Z,8.20
2018-10-01T19:24:57.926Z,8.20
2018-10-01T19:30:02.323Z,8.20
2018-10-01T19:35:06.977Z,8.10
2018-10-01T19:40:14.346Z,8.00
2018-10-01T19:45:17.913Z,8.00
2018-10-01T19:50:21.091Z,8.00
2018-10-01T19:55:25.468Z,8.00
2018-10-01T20:00:29.876Z,7.90
2018-10-01T20:05:36.895Z,7.90
2018-10-01T20:10:40.088Z,7.70
2018-10-01T20:15:49.359Z,7.60
2018-10-01T20:20:53.712Z,7.60
2018-10-01T20:25:59.074Z,7.60
2018-10-01T20:31:03.231Z,7.60
2018-10-01T20:36:06.643Z,7.50
2018-10-01T20:41:09.774Z,7.50
2018-10-01T20:46:19.526Z,7.50
2018-10-01T20:51:26.528Z,7.40
2018-10-01T21:02:09.653Z,7.40
2018-10-01T21:07:31.989Z,7.30
2018-10-01T21:12:35.273Z,7.30
2018-10-01T21:17:38.487Z,7.30
2018-10-01T21:22:41.671Z,7.30
2018-10-01T21:27:44.894Z,7.30
2018-10-01T21:32:48.103Z,7.30
2018-10-01T21:37:55.011Z,7.20
2018-10-01T21:42:58.182Z,7.20
2018-10-01T21:48:01.345Z,7.10
2018-10-01T21:53:04.527Z,7.10
2018-10-01T21:58:08.090Z,7.10
2018-10-01T22:03:11.255Z,7.10
2018-10-01T22:08:17.619Z,7.10
2018-10-01T22:13:20.781Z,7.10
2018-10-01T22:18:23.986Z,7.10
2018-10-01T22:23:27.160Z,7.20
2018-10-01T22:28:30.343Z,7.20
2018-10-01T22:33:33.543Z,7.20
2018-10-01T22:38:36.758Z,7.20
2018-10-01T22:43:39.943Z,7.20
2018-10-01T22:48:43.307Z,7.10
2018-10-01T22:53:46.504Z,7.20
2018-10-01T22:58:49.708Z,7.20
2018-10-01T23:03:53.965Z,7.20
2018-10-01T23:08:57.154Z,7.10
2018-10-01T23:14:00.376Z,7.20
2018-10-01T23:19:03.554Z,7.20
2018-10-01T23:24:06.707Z,7.30
2018-10-01T23:29:09.885Z,7.20
2018-10-01T23:34:15.063Z,7.30
2018-10-01T23:39:18.245Z,7.40
2018-10-01T23:44:21.426Z,7.40
2018-10-01T23:49:24.621Z,7.40
2018-10-01T23:54:27.790Z,7.50
2018-10-01T23:59:30.974Z,7.50
